createdAt,value
2019-04-11T00:00:57.659Z,0.00
2019-04-11T00:02:57.376Z,0.00
2019-04-11T00:03:57.725Z,0.00
2019-04-11T00:04:57.418Z,0.00
2019-04-11T00:06:03.294Z,0.00
2019-04-11T00:06:58.061Z,0.00
2019-04-11T00:08:56.966Z,0.00
2019-04-11T00:09:56.928Z,0.00
2019-04-11T00:10:57.571Z,0.00
2019-04-11T00:11:57.882Z,0.00
2019-04-11T00:12:57.039Z,0.00
2019-04-11T00:13:57.814Z,0.00
2019-04-11T00:14:56.959Z,0.00
2019-04-11T00:15:57.151Z,0.00
2019-04-11T00:16:57.373Z,0.00
2019-04-11T00:17:56.804Z,0.00
2019-04-11T00:18:57.020Z,0.00
2019-04-11T00:19:57.838Z,0.00
2019-04-11T00:20:56.669Z,0.00
2019-04-11T00:21:57.298Z,0.00
2019-04-11T00:22:57.610Z,0.00
2019-04-11T00:23:56.780Z,0.00
2019-04-11T00:24:56.783Z,0.00
2019-04-11T00:25:58.015Z,0.00
2019-04-11T00:26:56.995Z,0.00
2019-04-11T00:27:57.313Z,0.00
2019-04-11T00:28:56.482Z,0.00
2019-04-11T00:29:56.493Z,0.00
2019-04-11T00:30:56.667Z,0.00
2019-04-11T00:32:56.411Z,0.00
2019-04-11T00:33:56.439Z,0.00
2019-04-11T00:34:57.380Z,0.00
2019-04-11T00:35:56.456Z,0.00
2019-04-11T00:36:56.842Z,0.00
2019-04-11T00:37:57.150Z,0.00
2019-04-11T00:38:57.306Z,0.00
2019-04-11T00:39:56.645Z,0.00
2019-04-11T00:40:57.489Z,0.00
2019-04-11T00:41:56.869Z,0.00
2019-04-11T00:43:56.684Z,0.00
2019-04-11T00:44:57.107Z,0.00
2019-04-11T00:45:56.542Z,0.00
2019-04-11T00:46:56.371Z,0.00
2019-04-11T00:47:56.049Z,0.00
2019-04-11T00:48:56.094Z,0.00
2019-04-11T00:49:56.856Z,0.00
2019-04-11T00:50:56.048Z,0.00
2019-04-11T00:51:56.264Z,0.00
2019-04-11T00:52:56.090Z,0.00
2019-04-11T00:53:55.895Z,0.00
2019-04-11T00:54:55.896Z,0.00
2019-04-11T00:55:55.873Z,0.00
2019-04-11T00:56:56.739Z,0.00
2019-04-11T00:57:57.087Z,0.00
2019-04-11T00:58:56.136Z,0.00
2019-04-11T00:59:56.481Z,0.00
2019-04-11T01:00:55.808Z,0.00
2019-04-11T01:01:56.775Z,0.00
2019-04-11T01:02:55.948Z,0.00
2019-04-11T01:03:55.965Z,0.00
2019-04-11T01:04:55.667Z,0.00
2019-04-11T01:05:56.672Z,0.00
2019-04-11T01:06:55.717Z,0.00
2019-04-11T01:07:56.744Z,0.00
2019-04-11T01:08:55.798Z,0.00
2019-04-11T01:09:56.858Z,0.00
2019-04-11T01:10:55.503Z,0.00
2019-04-11T01:11:56.332Z,0.00
2019-04-11T01:12:56.658Z,0.00
2019-04-11T01:14:55.520Z,0.00
2019-04-11T01:15:56.498Z,0.00
2019-04-11T01:16:56.706Z,0.00
2019-04-11T01:17:55.960Z,0.00
2019-04-11T01:18:55.305Z,0.00
2019-04-11T01:19:55.378Z,0.00
2019-04-11T01:20:55.713Z,0.00
2019-04-11T01:21:55.315Z,0.00
2019-04-11T01:22:56.345Z,0.00
2019-04-11T01:23:55.602Z,0.00
2019-04-11T01:24:55.782Z,0.00
2019-04-11T01:25:55.269Z,0.00
2019-04-11T01:26:55.136Z,0.00
2019-04-11T01:27:56.350Z,0.00
2019-04-11T01:28:55.417Z,0.00
2019-04-11T01:29:55.689Z,0.00
2019-04-11T01:30:55.541Z,0.00
2019-04-11T01:31:55.017Z,0.00
2019-04-11T01:32:54.977Z,0.00
2019-04-11T01:33:55.983Z,0.00
2019-04-11T01:34:55.097Z,0.00
2019-04-11T01:35:55.378Z,0.00
2019-04-11T01:36:55.608Z,0.00
2019-04-11T01:37:55.748Z,0.00
2019-04-11T01:38:54.841Z,0.00
2019-04-11T01:39:54.811Z,0.00
2019-04-11T01:40:54.791Z,0.00
2019-04-11T01:41:55.173Z,0.00
2019-04-11T01:42:55.518Z,0.00
2019-04-11T01:44:00.954Z,0.00
2019-04-11T01:44:54.833Z,0.00
2019-04-11T01:45:55.914Z,0.00
2019-04-11T01:46:54.666Z,0.00
2019-04-11T01:47:55.260Z,0.00
2019-04-11T01:48:55.602Z,0.00
2019-04-11T01:49:54.639Z,0.00
2019-04-11T01:50:54.871Z,0.00
2019-04-11T01:51:54.597Z,0.00
2019-04-11T01:52:55.011Z,0.00
2019-04-11T01:53:55.356Z,0.00
2019-04-11T01:54:54.530Z,0.00
2019-04-11T01:56:54.415Z,0.00
2019-04-11T01:57:54.716Z,0.00
2019-04-11T01:58:55.201Z,0.00
2019-04-11T01:59:55.470Z,0.00
2019-04-11T02:00:54.693Z,0.00
2019-04-11T02:01:54.888Z,0.00
2019-04-11T02:02:54.905Z,0.00
2019-04-11T02:03:55.281Z,0.00
2019-04-11T02:04:54.411Z,0.00
2019-04-11T02:05:54.302Z,0.00
2019-04-11T02:06:54.281Z,0.00
2019-04-11T02:07:55.294Z,0.00
2019-04-11T02:08:54.174Z,0.00
2019-04-11T02:09:54.721Z,0.00
2019-04-11T02:10:54.117Z,0.00
2019-04-11T02:11:54.102Z,0.00
2019-04-11T02:12:55.281Z,0.00
2019-04-11T02:14:05.133Z,0.00
2019-04-11T02:14:54.030Z,0.00
2019-04-11T02:15:56.753Z,0.00
2019-04-11T02:16:53.926Z,0.00
2019-04-11T02:18:54.208Z,0.00
2019-04-11T02:19:53.852Z,0.00
2019-04-11T02:20:54.351Z,0.00
2019-04-11T02:21:54.105Z,0.00
2019-04-11T02:22:54.868Z,0.00
2019-04-11T02:23:53.810Z,0.00
2019-04-11T02:24:54.311Z,0.00
2019-04-11T02:25:54.531Z,0.00
2019-04-11T02:26:54.615Z,0.00
2019-04-11T02:27:54.186Z,0.00
2019-04-11T02:28:53.716Z,0.00
2019-04-11T02:29:53.712Z,0.00
2019-04-11T02:30:55.425Z,0.00
2019-04-11T02:31:55.020Z,0.00
2019-04-11T02:32:53.694Z,0.00
2019-04-11T02:33:55.248Z,0.00
2019-04-11T02:34:57.044Z,0.00
2019-04-11T02:35:54.251Z,0.00
2019-04-11T02:36:54.224Z,0.00
2019-04-11T02:37:54.890Z,0.00
2019-04-11T02:38:56.929Z,0.00
2019-04-11T02:39:54.110Z,0.00
2019-04-11T02:40:55.035Z,0.00
2019-04-11T02:41:54.790Z,0.00
2019-04-11T02:42:54.760Z,0.00
2019-04-11T02:43:54.897Z,0.00
2019-04-11T02:45:09.359Z,0.00
2019-04-11T02:47:01.740Z,0.00
2019-04-11T02:47:55.362Z,0.00
2019-04-11T02:48:54.550Z,0.00
2019-04-11T02:49:54.944Z,0.00
2019-04-11T02:50:54.285Z,0.00
2019-04-11T02:51:53.652Z,0.00
2019-04-11T02:52:53.130Z,0.00
2019-04-11T02:53:54.858Z,0.00
2019-04-11T02:54:54.410Z,0.00
2019-04-11T02:55:54.186Z,0.00
2019-04-11T02:56:54.574Z,0.00
2019-04-11T02:57:54.326Z,0.00
2019-04-11T02:59:53.961Z,0.00
2019-04-11T03:00:55.367Z,0.00
2019-04-11T03:01:53.076Z,0.00
2019-04-11T03:02:53.352Z,0.00
2019-04-11T03:03:53.979Z,0.00
2019-04-11T03:04:52.979Z,0.00
2019-04-11T03:05:53.270Z,0.00
2019-04-11T03:06:52.709Z,0.00
2019-04-11T03:07:54.081Z,0.00
2019-04-11T03:08:53.096Z,0.00
2019-04-11T03:09:53.594Z,0.00
2019-04-11T03:10:53.601Z,0.00
2019-04-11T03:11:54.442Z,0.00
2019-04-11T03:12:52.793Z,0.00
2019-04-11T03:13:52.723Z,0.00
2019-04-11T03:17:57.722Z,0.00
2019-04-11T03:19:08.156Z,0.00
2019-04-11T03:20:04.125Z,0.00
2019-04-11T03:20:56.649Z,0.00
2019-04-11T03:22:57.313Z,0.00
2019-04-11T03:23:52.383Z,0.00
2019-04-11T03:24:53.431Z,0.00
2019-04-11T03:25:52.539Z,0.00
2019-04-11T03:27:54.068Z,0.00
2019-04-11T03:28:56.541Z,0.00
2019-04-11T03:29:53.673Z,0.00
2019-04-11T03:31:13.247Z,0.00
2019-04-11T03:32:32.578Z,0.00
2019-04-11T03:34:42.415Z,0.00
2019-04-11T03:36:38.027Z,0.00
2019-04-11T03:39:11.569Z,0.00
2019-04-11T03:40:14.728Z,0.00
2019-04-11T03:41:12.746Z,0.00
2019-04-11T03:42:09.527Z,0.00
2019-04-11T03:43:06.429Z,0.00
2019-04-11T03:44:01.738Z,0.00
2019-04-11T03:45:19.095Z,0.00
2019-04-11T03:46:11.739Z,0.00
2019-04-11T03:47:10.092Z,0.00
2019-04-11T03:48:08.407Z,0.00
2019-04-11T03:49:01.232Z,0.00
2019-04-11T03:49:58.765Z,0.00
2019-04-11T03:50:54.582Z,0.00
2019-04-11T03:51:53.044Z,0.00
2019-04-11T03:53:53.103Z,0.00
2019-04-11T03:54:51.892Z,0.00
2019-04-11T03:55:51.695Z,0.00
2019-04-11T03:56:53.223Z,0.00
2019-04-11T03:57:53.617Z,0.00
2019-04-11T03:58:53.001Z,0.00
2019-04-11T03:59:52.019Z,4.00
2019-04-11T04:00:54.663Z,4.00
2019-04-11T04:01:51.388Z,0.00
2019-04-11T04:02:52.535Z,4.00
2019-04-11T04:03:53.406Z,4.00
2019-04-11T04:04:53.315Z,4.00
2019-04-11T04:05:52.788Z,4.00
2019-04-11T04:07:52.395Z,8.00
2019-04-11T04:08:53.014Z,8.00
2019-04-11T04:09:53.220Z,8.00
2019-04-11T04:10:51.864Z,12.00
2019-04-11T04:11:51.385Z,12.00
2019-04-11T04:12:51.618Z,16.00
2019-04-11T04:13:51.833Z,20.00
2019-04-11T04:14:53.749Z,24.00
2019-04-11T04:15:59.963Z,24.00
2019-04-11T04:16:54.813Z,28.00
2019-04-11T04:18:51.698Z,36.00
2019-04-11T04:19:51.780Z,44.00
2019-04-11T04:20:51.223Z,52.00
2019-04-11T04:21:51.244Z,60.00
2019-04-11T04:22:52.369Z,68.00
2019-04-11T04:23:51.906Z,76.00
2019-04-11T04:24:52.902Z,84.00
2019-04-11T04:25:51.688Z,100.00
2019-04-11T04:26:52.439Z,108.00
2019-04-11T04:27:51.420Z,124.00
2019-04-11T04:29:54.893Z,152.00
2019-04-11T04:30:51.722Z,168.00
2019-04-11T04:31:50.983Z,180.00
2019-04-11T04:32:52.086Z,200.00
2019-04-11T04:33:51.397Z,216.00
2019-04-11T04:34:51.192Z,236.00
2019-04-11T04:35:51.841Z,256.00
2019-04-11T04:36:51.523Z,280.00
2019-04-11T04:37:51.708Z,300.00
2019-04-11T04:38:50.536Z,324.00
2019-04-11T04:40:12.180Z,344.00
2019-04-11T04:41:05.708Z,368.00
2019-04-11T04:41:58.854Z,392.00
2019-04-11T04:43:50.802Z,448.00
2019-04-11T04:44:50.943Z,476.00
2019-04-11T04:46:08.495Z,508.00
2019-04-11T04:47:04.060Z,536.00
2019-04-11T04:47:57.761Z,568.00
2019-04-11T04:48:51.465Z,596.00
2019-04-11T04:49:52.153Z,632.00
2019-04-11T04:50:52.379Z,664.00
2019-04-11T04:51:51.182Z,696.00
2019-04-11T04:53:52.115Z,760.00
2019-04-11T04:54:50.632Z,792.00
2019-04-11T04:55:52.203Z,816.00
2019-04-11T04:56:50.370Z,856.00
2019-04-11T04:57:51.098Z,900.00
2019-04-11T04:58:50.875Z,956.00
2019-04-11T04:59:50.216Z,996.00
2019-04-11T05:00:52.017Z,1028.00
2019-04-11T05:01:50.857Z,1064.00
2019-04-11T05:02:50.324Z,1108.00
2019-04-11T05:03:50.942Z,1156.00
2019-04-11T05:04:50.179Z,1184.00
2019-04-11T05:05:50.999Z,1204.00
2019-04-11T05:06:50.826Z,1224.00
2019-04-11T05:07:49.943Z,1256.00
2019-04-11T05:08:51.272Z,1296.00
2019-04-11T05:09:50.306Z,1336.00
2019-04-11T05:10:51.276Z,1380.00
2019-04-11T05:11:50.819Z,1416.00
2019-04-11T05:12:51.264Z,1464.00
2019-04-11T05:13:51.763Z,1512.00
2019-04-11T05:14:49.900Z,1564.00
2019-04-11T05:16:02.856Z,1636.00
2019-04-11T05:17:51.113Z,1780.00
2019-04-11T05:18:50.500Z,1816.00
2019-04-11T05:19:49.518Z,1844.00
2019-04-11T05:20:49.565Z,1884.00
2019-04-11T05:21:49.901Z,1948.00
2019-04-11T05:22:49.750Z,2020.00
2019-04-11T05:23:50.066Z,2076.00
2019-04-11T05:24:49.375Z,2124.00
2019-04-11T05:25:49.350Z,2184.00
2019-04-11T05:26:50.341Z,2224.00
2019-04-11T05:27:49.695Z,2228.00
2019-04-11T05:28:49.273Z,2216.00
2019-04-11T05:29:49.607Z,2240.00
2019-04-11T05:30:49.281Z,2308.00
2019-04-11T05:31:49.290Z,2412.00
2019-04-11T05:32:49.402Z,2496.00
2019-04-11T05:33:49.725Z,2548.00
2019-04-11T05:34:49.211Z,2588.00
2019-04-11T05:35:50.052Z,2620.00
2019-04-11T05:36:49.883Z,2652.00
2019-04-11T05:37:49.126Z,2668.00
2019-04-11T05:38:49.034Z,2656.00
2019-04-11T05:39:49.020Z,2680.00
2019-04-11T05:40:48.994Z,2756.00
2019-04-11T05:41:49.973Z,2828.00
2019-04-11T05:42:53.439Z,2872.00
2019-04-11T05:43:49.440Z,2884.00
2019-04-11T05:44:49.935Z,2888.00
2019-04-11T05:45:54.386Z,2904.00
2019-04-11T05:46:55.715Z,2940.00
2019-04-11T05:47:50.934Z,2992.00
2019-04-11T05:48:48.843Z,3004.00
2019-04-11T05:49:48.866Z,3000.00
2019-04-11T05:50:51.541Z,3004.00
2019-04-11T05:51:49.384Z,3028.00
2019-04-11T05:52:48.754Z,3036.00
2019-04-11T05:55:48.723Z,2848.00
2019-04-11T05:56:53.699Z,2824.00
2019-04-11T05:57:50.131Z,2868.00
2019-04-11T05:58:49.404Z,2952.00
2019-04-11T05:59:52.086Z,3004.00
2019-04-11T06:00:48.908Z,2988.00
2019-04-11T06:01:48.861Z,2924.00
2019-04-11T06:02:49.233Z,2896.00
2019-04-11T06:03:49.185Z,2908.00
2019-04-11T06:04:51.971Z,2956.00
2019-04-11T06:05:48.408Z,2968.00
2019-04-11T06:06:48.561Z,2988.00
2019-04-11T06:07:55.656Z,3040.00
2019-04-11T06:08:48.490Z,3112.00
2019-04-11T06:09:48.289Z,3212.00
2019-04-11T06:10:52.288Z,3304.00
2019-04-11T06:12:48.393Z,3508.00
2019-04-11T06:13:48.886Z,3668.00
2019-04-11T06:14:49.264Z,3776.00
2019-04-11T06:15:49.253Z,3804.00
2019-04-11T06:16:52.617Z,3780.00
2019-04-11T06:17:48.434Z,3764.00
2019-04-11T06:18:48.235Z,3856.00
2019-04-11T06:19:48.169Z,4020.00
2019-04-11T06:21:48.482Z,4128.00
2019-04-11T06:22:48.225Z,4064.00
2019-04-11T06:23:48.271Z,3984.00
2019-04-11T06:24:48.253Z,3912.00
2019-04-11T06:25:49.127Z,3816.00
2019-04-11T06:26:48.920Z,3724.00
2019-04-11T06:27:47.960Z,3632.00
2019-04-11T06:28:47.870Z,3500.00
2019-04-11T06:30:48.560Z,3200.00
2019-04-11T06:31:47.861Z,3028.00
2019-04-11T06:33:48.990Z,2868.00
2019-04-11T06:34:47.828Z,2832.00
2019-04-11T06:35:48.328Z,2876.00
2019-04-11T06:36:48.236Z,2976.00
2019-04-11T06:37:47.863Z,3052.00
2019-04-11T06:38:47.611Z,3084.00
2019-04-11T06:39:48.381Z,3140.00
2019-04-11T06:40:48.117Z,3296.00
2019-04-11T06:41:48.618Z,3540.00
2019-04-11T06:42:47.688Z,3800.00
2019-04-11T06:43:47.962Z,3956.00
2019-04-11T06:44:48.083Z,3980.00
2019-04-11T06:45:48.110Z,3972.00
2019-04-11T06:46:53.841Z,3996.00
2019-04-11T06:47:47.733Z,4064.00
2019-04-11T06:48:47.686Z,4168.00
2019-04-11T06:49:47.351Z,4232.00
2019-04-11T06:50:47.312Z,4280.00
2019-04-11T06:51:48.339Z,4388.00
2019-04-11T06:52:47.259Z,4504.00
2019-04-11T06:53:48.428Z,4520.00
2019-04-11T06:54:47.623Z,4504.00
2019-04-11T06:55:47.248Z,4520.00
2019-04-11T06:56:47.601Z,4600.00
2019-04-11T06:57:48.051Z,4684.00
2019-04-11T06:58:47.907Z,4668.00
2019-04-11T06:59:48.341Z,4648.00
2019-04-11T07:00:47.520Z,4752.00
2019-04-11T07:01:47.632Z,4956.00
2019-04-11T07:02:47.046Z,5104.00
2019-04-11T07:03:47.029Z,5088.00
2019-04-11T07:04:47.005Z,4992.00
2019-04-11T07:05:46.977Z,4872.00
2019-04-11T07:06:48.105Z,4764.00
2019-04-11T07:07:46.937Z,4656.00
2019-04-11T07:08:47.289Z,4552.00
2019-04-11T07:09:47.106Z,4532.00
2019-04-11T07:10:46.882Z,4580.00
2019-04-11T07:11:46.835Z,4544.00
2019-04-11T07:12:47.175Z,4468.00
2019-04-11T07:13:47.689Z,4432.00
2019-04-11T07:14:47.563Z,4460.00
2019-04-11T07:15:47.043Z,4516.00
2019-04-11T07:16:46.859Z,4508.00
2019-04-11T07:18:46.684Z,4248.00
2019-04-11T07:19:47.959Z,4136.00
2019-04-11T07:20:46.688Z,4036.00
2019-04-11T07:21:46.607Z,3968.00
2019-04-11T07:22:47.355Z,3920.00
2019-04-11T07:23:47.146Z,3912.00
2019-04-11T07:24:47.465Z,3940.00
2019-04-11T07:25:47.351Z,4012.00
2019-04-11T07:26:47.920Z,4228.00
2019-04-11T07:27:46.512Z,4348.00
2019-04-11T07:28:46.428Z,4348.00
2019-04-11T07:29:46.717Z,4348.00
2019-04-11T07:30:47.363Z,4332.00
2019-04-11T07:31:46.371Z,4324.00
2019-04-11T07:32:47.746Z,4324.00
2019-04-11T07:33:46.508Z,4316.00
2019-04-11T07:34:47.733Z,4316.00
2019-04-11T07:35:47.711Z,4328.00
2019-04-11T07:36:46.633Z,4324.00
2019-04-11T07:37:47.375Z,4332.00
2019-04-11T07:38:49.176Z,4340.00
2019-04-11T07:39:47.292Z,4344.00
2019-04-11T07:40:47.480Z,4352.00
2019-04-11T07:41:47.794Z,4344.00
2019-04-11T07:42:46.854Z,4336.00
2019-04-11T07:43:46.101Z,4328.00
2019-04-11T07:44:47.261Z,4336.00
2019-04-11T07:47:46.310Z,4424.00
2019-04-11T07:49:46.069Z,4476.00
2019-04-11T07:50:46.557Z,4484.00
2019-04-11T07:51:46.216Z,4504.00
2019-04-11T07:52:46.913Z,4556.00
2019-04-11T07:53:46.190Z,4636.00
2019-04-11T07:54:45.957Z,4752.00
2019-04-11T07:55:46.605Z,4780.00
2019-04-11T07:56:46.342Z,5332.00
2019-04-11T07:57:46.859Z,5388.00
2019-04-11T07:58:45.836Z,4928.00
2019-04-11T07:59:46.701Z,4752.00
2019-04-11T08:00:49.344Z,4716.00
2019-04-11T08:01:46.871Z,4720.00
2019-04-11T08:02:45.761Z,4728.00
2019-04-11T08:03:46.866Z,4760.00
2019-04-11T08:04:45.667Z,4980.00
2019-04-11T08:05:46.724Z,5660.00
2019-04-11T08:07:46.818Z,4796.00
2019-04-11T08:08:45.631Z,4912.00
2019-04-11T08:09:45.582Z,5456.00
2019-04-11T08:10:45.822Z,5564.00
2019-04-11T08:11:45.867Z,5340.00
2019-04-11T08:12:45.846Z,5356.00
2019-04-11T08:13:45.534Z,5068.00
2019-04-11T08:14:45.721Z,5032.00
2019-04-11T08:15:46.045Z,5384.00
2019-04-11T08:16:45.509Z,5364.00
2019-04-11T08:17:46.035Z,5148.00
2019-04-11T08:18:45.744Z,5152.00
2019-04-11T08:19:45.409Z,5372.00
2019-04-11T08:20:45.702Z,4256.00
2019-04-11T08:21:46.132Z,5072.00
2019-04-11T08:22:45.603Z,5772.00
2019-04-11T08:23:45.719Z,6056.00
2019-04-11T08:24:45.318Z,5720.00
2019-04-11T08:26:46.364Z,5384.00
2019-04-11T08:28:45.623Z,5500.00
2019-04-11T08:30:45.339Z,5456.00
2019-04-11T08:32:46.435Z,5544.00
2019-04-11T08:33:46.711Z,5504.00
2019-04-11T08:34:45.866Z,5564.00
2019-04-11T08:36:47.159Z,5552.00
2019-04-11T08:37:45.533Z,5548.00
2019-04-11T08:38:45.080Z,5676.00
2019-04-11T08:39:45.421Z,5708.00
2019-04-11T08:40:45.243Z,5696.00
2019-04-11T08:41:45.023Z,4776.00
2019-04-11T08:42:45.096Z,5640.00
2019-04-11T08:43:45.582Z,4436.00
2019-04-11T08:44:45.014Z,5792.00
2019-04-11T08:45:45.046Z,5112.00
2019-04-11T08:46:45.465Z,6268.00
2019-04-11T08:47:51.253Z,7500.00
2019-04-11T08:48:45.645Z,8828.00
2019-04-11T08:49:45.971Z,8848.00
2019-04-11T08:50:45.006Z,8920.00
2019-04-11T08:51:44.894Z,8856.00
2019-04-11T08:52:44.893Z,8704.00
2019-04-11T08:53:44.964Z,9808.00
2019-04-11T08:54:45.921Z,11144.00
2019-04-11T08:55:51.962Z,12076.00
2019-04-11T08:56:45.405Z,14024.00
2019-04-11T08:57:44.786Z,14708.00
2019-04-11T08:58:44.888Z,14896.00
2019-04-11T08:59:45.831Z,13376.00
2019-04-11T09:00:44.781Z,12076.00
2019-04-11T09:01:46.002Z,12268.00
2019-04-11T09:02:45.032Z,13932.00
2019-04-11T09:03:56.685Z,13800.00
2019-04-11T09:04:46.128Z,14344.00
2019-04-11T09:05:45.481Z,14344.00
2019-04-11T09:06:45.053Z,13332.00
2019-04-11T09:07:45.710Z,12772.00
2019-04-11T09:08:45.239Z,11484.00
2019-04-11T09:09:45.559Z,12196.00
2019-04-11T09:11:46.982Z,14360.00
2019-04-11T09:12:46.810Z,15156.00
2019-04-11T09:13:44.985Z,14596.00
2019-04-11T09:14:44.944Z,14292.00
2019-04-11T09:15:45.386Z,13916.00
2019-04-11T09:16:45.755Z,13868.00
2019-04-11T09:17:56.552Z,14028.00
2019-04-11T09:18:44.593Z,13340.00
2019-04-11T09:19:45.305Z,12140.00
2019-04-11T09:20:45.594Z,11196.00
2019-04-11T09:21:44.662Z,10244.00
2019-04-11T09:22:44.958Z,10056.00
2019-04-11T09:23:44.721Z,10720.00
2019-04-11T09:25:45.423Z,12284.00
2019-04-11T09:26:44.479Z,12828.00
2019-04-11T09:28:44.350Z,12200.00
2019-04-11T09:29:44.348Z,11772.00
2019-04-11T09:31:45.563Z,11120.00
2019-04-11T09:32:44.478Z,11168.00
2019-04-11T09:33:44.931Z,11596.00
2019-04-11T09:34:44.455Z,12232.00
2019-04-11T09:35:44.282Z,13140.00
2019-04-11T09:36:45.190Z,14020.00
2019-04-11T09:37:44.593Z,15180.00
2019-04-11T09:39:45.468Z,17568.00
2019-04-11T09:40:44.135Z,18656.00
2019-04-11T09:41:44.820Z,19264.00
2019-04-11T09:42:44.987Z,19520.00
2019-04-11T09:43:44.378Z,19584.00
2019-04-11T09:44:44.817Z,19680.00
2019-04-11T09:45:44.063Z,22656.00
2019-04-11T09:46:44.053Z,21376.00
2019-04-11T09:47:44.025Z,20192.00
2019-04-11T09:48:44.485Z,18496.00
2019-04-11T09:49:45.030Z,14984.00
2019-04-11T09:50:44.739Z,16544.00
2019-04-11T09:51:44.295Z,16148.00
2019-04-11T09:52:45.218Z,15868.00
2019-04-11T09:53:45.069Z,14492.00
2019-04-11T09:54:44.265Z,11460.00
2019-04-11T09:55:44.015Z,11260.00
2019-04-11T09:57:44.296Z,11636.00
2019-04-11T09:58:44.176Z,11868.00
2019-04-11T09:59:43.975Z,12284.00
2019-04-11T10:00:45.169Z,12848.00
2019-04-11T10:01:44.965Z,13544.00
2019-04-11T10:02:44.136Z,14160.00
2019-04-11T10:03:45.043Z,15184.00
2019-04-11T10:04:44.246Z,16704.00
2019-04-11T10:05:44.790Z,17664.00
2019-04-11T10:06:44.582Z,18240.00
2019-04-11T10:07:44.157Z,19328.00
2019-04-11T10:08:43.860Z,18240.00
2019-04-11T10:09:44.217Z,17056.00
2019-04-11T10:10:44.868Z,15232.00
2019-04-11T10:11:44.133Z,13216.00
2019-04-11T10:12:44.633Z,11612.00
2019-04-11T10:13:44.853Z,10372.00
2019-04-11T10:14:43.978Z,9676.00
2019-04-11T10:15:43.729Z,9548.00
2019-04-11T10:16:44.326Z,9792.00
2019-04-11T10:17:43.597Z,10160.00
2019-04-11T10:18:44.308Z,10692.00
2019-04-11T10:20:44.576Z,11964.00
2019-04-11T10:21:43.736Z,12572.00
2019-04-11T10:22:43.891Z,13456.00
2019-04-11T10:23:43.457Z,13960.00
2019-04-11T10:24:43.432Z,13828.00
2019-04-11T10:25:43.721Z,13880.00
2019-04-11T10:27:44.674Z,14452.00
2019-04-11T10:28:43.902Z,14540.00
2019-04-11T10:29:44.101Z,14756.00
2019-04-11T10:30:44.121Z,15200.00
2019-04-11T10:31:44.362Z,15320.00
2019-04-11T10:32:43.662Z,15324.00
2019-04-11T10:33:43.287Z,23328.00
2019-04-11T10:34:43.865Z,24000.00
2019-04-11T10:35:43.254Z,24768.00
2019-04-11T10:36:43.370Z,25024.00
2019-04-11T10:37:44.218Z,25376.00
2019-04-11T10:38:43.215Z,24256.00
2019-04-11T10:40:44.152Z,21792.00
2019-04-11T10:41:44.179Z,21120.00
2019-04-11T10:42:43.131Z,20448.00
2019-04-11T10:43:44.602Z,20032.00
2019-04-11T10:44:43.224Z,19872.00
2019-04-11T10:45:43.204Z,20672.00
2019-04-11T10:46:43.891Z,22144.00
2019-04-11T10:47:43.067Z,24928.00
2019-04-11T10:48:45.280Z,43136.00
2019-04-11T10:49:44.205Z,68160.00
2019-04-11T10:50:44.402Z,72736.00
2019-04-11T10:51:43.294Z,71520.00
2019-04-11T10:52:43.091Z,72576.00
2019-04-11T10:53:43.711Z,77184.00
2019-04-11T10:55:44.121Z,54016.00
2019-04-11T10:56:43.259Z,48352.00
2019-04-11T10:57:42.971Z,57472.00
2019-04-11T10:58:42.966Z,78848.00
2019-04-11T10:59:43.076Z,85728.00
2019-04-11T11:00:43.235Z,91648.00
2019-04-11T11:01:44.322Z,38912.00
2019-04-11T11:02:42.976Z,24160.00
2019-04-11T11:03:43.118Z,20864.00
2019-04-11T11:04:43.135Z,19104.00
2019-04-11T11:05:42.982Z,17824.00
2019-04-11T11:06:44.941Z,16736.00
2019-04-11T11:08:43.781Z,15288.00
2019-04-11T11:09:44.234Z,14596.00
2019-04-11T11:10:43.839Z,14056.00
2019-04-11T11:11:42.834Z,13628.00
2019-04-11T11:12:43.498Z,13352.00
2019-04-11T11:13:42.815Z,13128.00
2019-04-11T11:14:42.951Z,13052.00
2019-04-11T11:15:44.010Z,13268.00
2019-04-11T11:16:44.967Z,13748.00
2019-04-11T11:19:15.561Z,15184.00
2019-04-11T11:19:55.284Z,15816.00
2019-04-11T11:20:50.132Z,16268.00
2019-04-11T11:21:43.009Z,16800.00
2019-04-11T11:22:44.368Z,17088.00
2019-04-11T11:23:42.872Z,17376.00
2019-04-11T11:24:42.724Z,17568.00
2019-04-11T11:25:48.305Z,17408.00
2019-04-11T11:26:43.277Z,17280.00
2019-04-11T11:27:43.685Z,17440.00
2019-04-11T11:28:43.169Z,17632.00
2019-04-11T11:29:43.127Z,18016.00
2019-04-11T11:30:42.646Z,18432.00
2019-04-11T11:31:44.625Z,18912.00
2019-04-11T11:33:42.735Z,20032.00
2019-04-11T11:35:42.996Z,21632.00
2019-04-11T11:37:42.503Z,21184.00
2019-04-11T11:38:42.484Z,20640.00
2019-04-11T11:39:43.685Z,20192.00
2019-04-11T11:40:43.983Z,19904.00
2019-04-11T11:41:42.748Z,20032.00
2019-04-11T11:42:42.438Z,20224.00
2019-04-11T11:43:43.316Z,20384.00
2019-04-11T11:44:42.479Z,20320.00
2019-04-11T11:45:46.898Z,20160.00
2019-04-11T11:48:46.414Z,21504.00
2019-04-11T11:49:51.732Z,22272.00
2019-04-11T11:50:42.752Z,23200.00
2019-04-11T11:51:42.327Z,24000.00
2019-04-11T11:52:42.802Z,24448.00
2019-04-11T11:53:42.799Z,24448.00
2019-04-11T11:54:42.439Z,24448.00
2019-04-11T11:55:43.199Z,24576.00
2019-04-11T11:56:42.556Z,24608.00
2019-04-11T11:57:42.747Z,24704.00
2019-04-11T11:58:43.804Z,24480.00
2019-04-11T11:59:42.825Z,24544.00
2019-04-11T12:00:42.299Z,24704.00
2019-04-11T12:01:46.510Z,25568.00
2019-04-11T12:02:42.391Z,26144.00
2019-04-11T12:03:42.509Z,27712.00
2019-04-11T12:04:42.302Z,27648.00
2019-04-11T12:05:47.105Z,27296.00
2019-04-11T12:06:43.037Z,27232.00
2019-04-11T12:08:46.634Z,27552.00
2019-04-11T12:09:42.505Z,29728.00
2019-04-11T12:10:42.291Z,22784.00
2019-04-11T12:11:42.194Z,18016.00
2019-04-11T12:12:42.183Z,15036.00
2019-04-11T12:14:44.959Z,12680.00
2019-04-11T12:15:43.376Z,12160.00
2019-04-11T12:16:42.218Z,11908.00
2019-04-11T12:17:42.806Z,11880.00
2019-04-11T12:18:47.230Z,11940.00
2019-04-11T12:19:49.310Z,11972.00
2019-04-11T12:20:44.774Z,11844.00
2019-04-11T12:22:42.362Z,11816.00
2019-04-11T12:23:48.509Z,11948.00
2019-04-11T12:24:42.950Z,12072.00
2019-04-11T12:25:41.993Z,12408.00
2019-04-11T12:26:43.239Z,12816.00
2019-04-11T12:27:41.760Z,13204.00
2019-04-11T12:28:42.020Z,13568.00
2019-04-11T12:29:46.386Z,13592.00
2019-04-11T12:30:42.007Z,13440.00
2019-04-11T12:31:41.891Z,13380.00
2019-04-11T12:32:41.652Z,13356.00
2019-04-11T12:33:41.644Z,13756.00
2019-04-11T12:36:46.605Z,16232.00
2019-04-11T12:37:41.552Z,17248.00
2019-04-11T12:38:41.547Z,18080.00
2019-04-11T12:39:41.719Z,18656.00
2019-04-11T12:40:41.817Z,19104.00
2019-04-11T12:41:41.495Z,19616.00
2019-04-11T12:42:41.484Z,20032.00
2019-04-11T12:43:41.552Z,20512.00
2019-04-11T12:44:41.441Z,20704.00
2019-04-11T12:47:41.727Z,18368.00
2019-04-11T12:48:41.479Z,17152.00
2019-04-11T12:49:52.273Z,16112.00
2019-04-11T12:51:41.324Z,15868.00
2019-04-11T12:52:41.398Z,14924.00
2019-04-11T12:53:41.861Z,14024.00
2019-04-11T12:54:41.752Z,13072.00
2019-04-11T12:55:41.634Z,11960.00
2019-04-11T12:56:41.459Z,11252.00
2019-04-11T12:57:41.575Z,10908.00
2019-04-11T12:58:41.201Z,10756.00
2019-04-11T12:59:41.229Z,10584.00
2019-04-11T13:00:41.180Z,10208.00
2019-04-11T13:01:41.467Z,9876.00
2019-04-11T13:02:41.143Z,9720.00
2019-04-11T13:03:41.228Z,9500.00
2019-04-11T13:04:44.093Z,9232.00
2019-04-11T13:05:41.086Z,9008.00
2019-04-11T13:06:41.069Z,8972.00
2019-04-11T13:07:41.156Z,9068.00
2019-04-11T13:08:41.035Z,9344.00
2019-04-11T13:09:41.013Z,9564.00
2019-04-11T13:10:41.005Z,9404.00
2019-04-11T13:11:40.987Z,9008.00
2019-04-11T13:12:40.963Z,8508.00
2019-04-11T13:14:41.224Z,7592.00
2019-04-11T13:16:40.889Z,7144.00
2019-04-11T13:17:40.880Z,7124.00
2019-04-11T13:19:40.908Z,7268.00
2019-04-11T13:20:40.816Z,7308.00
2019-04-11T13:21:41.168Z,7300.00
2019-04-11T13:22:40.798Z,7292.00
2019-04-11T13:23:41.367Z,7312.00
2019-04-11T13:25:41.667Z,7308.00
2019-04-11T13:26:41.404Z,7388.00
2019-04-11T13:27:41.229Z,7552.00
2019-04-11T13:28:41.051Z,7752.00
2019-04-11T13:29:40.678Z,7920.00
2019-04-11T13:30:40.722Z,8052.00
2019-04-11T13:31:40.611Z,8200.00